sensor_id;sensor_type;location;lat;lon;timestamp;pressure;altitude;pressure_sealevel;temperature;humidity
55610;BME280;41486;52.502;13.486;2023-04-06T00:02:22;101568.78;;;3.81;87.55
55610;BME280;41486;52.502;13.486;2023-04-06T00:04:51;101555.75;;;3.82;86.84
55610;BME280;41486;52.502;13.486;2023-04-06T00:07:19;101555.84;;;3.79;87.62
55610;BME280;41486;52.502;13.486;2023-04-06T00:09:47;101553.44;;;3.73;88.45
55610;BME280;41486;52.502;13.486;2023-04-06T00:12:16;101550.75;;;3.76;88.30
55610;BME280;41486;52.502;13.486;2023-04-06T00:14:45;101549.22;;;3.69;88.44
55610;BME280;41486;52.502;13.486;2023-04-06T00:17:13;101542.38;;;3.66;89.06
55610;BME280;41486;52.502;13.486;2023-04-06T00:19:41;101550.94;;;3.70;89.31
55610;BME280;41486;52.502;13.486;2023-04-06T00:22:09;101542.22;;;3.71;89.23
55610;BME280;41486;52.502;13.486;2023-04-06T00:24:38;101543.28;;;3.65;89.44
55610;BME280;41486;52.502;13.486;2023-04-06T00:27:06;101539.00;;;3.89;88.22
55610;BME280;41486;52.502;13.486;2023-04-06T00:29:34;101543.28;;;3.65;89.16
55610;BME280;41486;52.502;13.486;2023-04-06T00:32:03;101546.81;;;3.62;90.12
55610;BME280;41486;52.502;13.486;2023-04-06T00:34:32;101537.59;;;3.54;91.14
55610;BME280;41486;52.502;13.486;2023-04-06T00:37:00;101536.72;;;3.53;90.78
55610;BME280;41486;52.502;13.486;2023-04-06T00:39:28;101540.28;;;3.51;90.98
55610;BME280;41486;52.502;13.486;2023-04-06T00:41:56;101534.09;;;3.53;90.96
55610;BME280;41486;52.502;13.486;2023-04-06T00:44:25;101530.72;;;3.51;91.05
55610;BME280;41486;52.502;13.486;2023-04-06T00:46:53;101529.78;;;3.54;91.24
55610;BME280;41486;52.502;13.486;2023-04-06T00:49:24;101538.63;;;3.48;91.54
55610;BME280;41486;52.502;13.486;2023-04-06T00:51:52;101532.59;;;3.46;91.67
55610;BME280;41486;52.502;13.486;2023-04-06T00:54:21;101536.09;;;3.46;91.48
55610;BME280;41486;52.502;13.486;2023-04-06T00:56:49;101533.34;;;3.50;91.59
55610;BME280;41486;52.502;13.486;2023-04-06T00:59:18;101531.78;;;3.45;91.66
55610;BME280;41486;52.502;13.486;2023-04-06T01:01:46;101527.53;;;3.43;92.04
55610;BME280;41486;52.502;13.486;2023-04-06T01:04:33;101527.38;;;3.47;92.48
55610;BME280;41486;52.502;13.486;2023-04-06T01:07:03;101528.31;;;3.45;91.82
55610;BME280;41486;52.502;13.486;2023-04-06T01:09:40;101524.13;;;3.41;92.44
55610;BME280;41486;52.502;13.486;2023-04-06T01:12:15;101527.56;;;3.41;92.27
55610;BME280;41486;52.502;13.486;2023-04-06T01:14:44;101528.66;;;3.34;93.46
55610;BME280;41486;52.502;13.486;2023-04-06T01:17:12;101520.81;;;3.36;93.50
55610;BME280;41486;52.502;13.486;2023-04-06T01:19:43;101526.91;;;3.35;93.59
55610;BME280;41486;52.502;13.486;2023-04-06T01:22:21;101526.16;;;3.31;92.25
55610;BME280;41486;52.502;13.486;2023-04-06T01:24:55;101528.75;;;3.31;92.44
55610;BME280;41486;52.502;13.486;2023-04-06T01:27:32;101534.75;;;3.33;93.47
55610;BME280;41486;52.502;13.486;2023-04-06T01:30:19;101522.84;;;3.26;92.91
55610;BME280;41486;52.502;13.486;2023-04-06T01:32:51;101529.06;;;3.22;93.13
55610;BME280;41486;52.502;13.486;2023-04-06T01:35:31;101524.88;;;3.16;93.93
55610;BME280;41486;52.502;13.486;2023-04-06T01:38:13;101526.50;;;3.20;94.15
55610;BME280;41486;52.502;13.486;2023-04-06T01:40:43;101519.63;;;3.18;93.91
55610;BME280;41486;52.502;13.486;2023-04-06T01:43:11;101518.84;;;3.15;93.25
55610;BME280;41486;52.502;13.486;2023-04-06T01:45:59;101527.75;;;3.08;93.23
55610;BME280;41486;52.502;13.486;2023-04-06T01:48:32;101527.50;;;3.16;93.73
55610;BME280;41486;52.502;13.486;2023-04-06T01:51:09;101531.19;;;3.09;93.79
55610;BME280;41486;52.502;13.486;2023-04-06T01:53:46;101521.53;;;3.12;93.48
55610;BME280;41486;52.502;13.486;2023-04-06T01:56:16;101522.44;;;3.11;94.00
55610;BME280;41486;52.502;13.486;2023-04-06T01:58:53;101525.97;;;3.09;93.60
55610;BME280;41486;52.502;13.486;2023-04-06T02:01:22;101517.16;;;3.13;93.45
55610;BME280;41486;52.502;13.486;2023-04-06T02:03:54;101516.28;;;3.14;93.09
55610;BME280;41486;52.502;13.486;2023-04-06T02:06:23;101521.47;;;3.14;93.48
55610;BME280;41486;52.502;13.486;2023-04-06T02:08:53;101526.81;;;3.09;94.23
55610;BME280;41486;52.502;13.486;2023-04-06T02:11:21;101526.81;;;3.09;94.66
55610;BME280;41486;52.502;13.486;2023-04-06T02:13:54;101527.06;;;3.02;94.53
55610;BME280;41486;52.502;13.486;2023-04-06T02:16:25;101517.50;;;3.02;94.47
55610;BME280;41486;52.502;13.486;2023-04-06T02:18:54;101523.78;;;2.95;94.27
55610;BME280;41486;52.502;13.486;2023-04-06T02:21:22;101526.38;;;2.96;94.56
55610;BME280;41486;52.502;13.486;2023-04-06T02:23:50;101524.75;;;2.92;94.48
55610;BME280;41486;52.502;13.486;2023-04-06T02:26:20;101518.69;;;2.92;94.69
55610;BME280;41486;52.502;13.486;2023-04-06T02:28:48;101522.69;;;3.04;94.02
55610;BME280;41486;52.502;13.486;2023-04-06T02:31:16;101522.97;;;2.93;94.12
55610;BME280;41486;52.502;13.486;2023-04-06T02:33:44;101525.97;;;3.09;93.89
55610;BME280;41486;52.502;13.486;2023-04-06T02:36:14;101524.56;;;2.98;94.43
55610;BME280;41486;52.502;13.486;2023-04-06T02:38:43;101522.09;;;2.94;94.61
55610;BME280;41486;52.502;13.486;2023-04-06T02:41:11;101527.34;;;2.92;94.56
55610;BME280;41486;52.502;13.486;2023-04-06T02:43:41;101524.19;;;2.82;95.76
55610;BME280;41486;52.502;13.486;2023-04-06T02:46:20;101532.19;;;2.75;96.62
55610;BME280;41486;52.502;13.486;2023-04-06T02:48:48;101526.84;;;2.79;96.65
55610;BME280;41486;52.502;13.486;2023-04-06T02:51:17;101532.19;;;2.75;96.53
55610;BME280;41486;52.502;13.486;2023-04-06T02:53:50;101528.88;;;2.70;96.75
55610;BME280;41486;52.502;13.486;2023-04-06T02:56:18;101530.78;;;2.63;97.54
55610;BME280;41486;52.502;13.486;2023-04-06T02:58:51;101533.53;;;2.58;97.77
55610;BME280;41486;52.502;13.486;2023-04-06T03:01:23;101522.34;;;2.56;97.12
55610;BME280;41486;52.502;13.486;2023-04-06T03:03:57;101538.09;;;2.50;97.54
55610;BME280;41486;52.502;13.486;2023-04-06T03:06:27;101534.84;;;2.42;98.56
55610;BME280;41486;52.502;13.486;2023-04-06T03:09:00;101535.78;;;2.39;99.52
55610;BME280;41486;52.502;13.486;2023-04-06T03:11:29;101529.75;;;2.39;100.00
55610;BME280;41486;52.502;13.486;2023-04-06T03:13:59;101535.84;;;2.38;100.00
55610;BME280;41486;52.502;13.486;2023-04-06T03:16:27;101528.13;;;2.66;100.00
55610;BME280;41486;52.502;13.486;2023-04-06T03:18:55;101537.50;;;2.40;100.00
55610;BME280;41486;52.502;13.486;2023-04-06T03:21:24;101532.34;;;2.39;100.00
55610;BME280;41486;52.502;13.486;2023-04-06T03:23:53;101532.88;;;2.50;100.00
55610;BME280;41486;52.502;13.486;2023-04-06T03:26:21;101528.94;;;2.36;100.00
55610;BME280;41486;52.502;13.486;2023-04-06T03:28:51;101527.59;;;2.21;100.00
55610;BME280;41486;52.502;13.486;2023-04-06T03:31:24;101533.03;;;2.14;100.00
55610;BME280;41486;52.502;13.486;2023-04-06T03:33:59;101534.75;;;2.13;100.00
55610;BME280;41486;52.502;13.486;2023-04-06T03:36:30;101538.16;;;2.15;100.00
55610;BME280;41486;52.502;13.486;2023-04-06T03:39:00;101540.97;;;2.08;100.00
55610;BME280;41486;52.502;13.486;2023-04-06T03:41:31;101541.00;;;2.06;100.00
55610;BME280;41486;52.502;13.486;2023-04-06T03:44:20;101545.41;;;2.02;100.00
55610;BME280;41486;52.502;13.486;2023-04-06T03:46:50;101551.72;;;1.94;100.00
55610;BME280;41486;52.502;13.486;2023-04-06T03:49:19;101549.31;;;1.86;100.00
55610;BME280;41486;52.502;13.486;2023-04-06T03:51:50;101553.06;;;1.74;100.00
55610;BME280;41486;52.502;13.486;2023-04-06T03:54:18;101558.25;;;1.74;100.00
55610;BME280;41486;52.502;13.486;2023-04-06T03:56:46;101553.38;;;1.62;100.00
55610;BME280;41486;52.502;13.486;2023-04-06T03:59:14;101552.66;;;1.55;100.00
55610;BME280;41486;52.502;13.486;2023-04-06T04:01:42;101564.84;;;1.51;100.00
55610;BME280;41486;52.502;13.486;2023-04-06T04:04:12;101558.94;;;1.46;100.00
55610;BME280;41486;52.502;13.486;2023-04-06T04:06:40;101565.00;;;1.45;100.00
55610;BME280;41486;52.502;13.486;2023-04-06T04:09:08;101561.69;;;1.40;100.00
55610;BME280;41486;52.502;13.486;2023-04-06T04:11:36;101566.19;;;1.32;100.00
55610;BME280;41486;52.502;13.486;2023-04-06T04:14:04;101569.63;;;1.32;100.00
55610;BME280;41486;52.502;13.486;2023-04-06T04:16:32;101573.63;;;1.46;100.00
55610;BME280;41486;52.502;13.486;2023-04-06T04:19:02;101566.91;;;1.37;100.00
55610;BME280;41486;52.502;13.486;2023-04-06T04:21:31;101570.41;;;1.36;100.00
55610;BME280;41486;52.502;13.486;2023-04-06T04:24:06;101575.72;;;1.30;100.00
55610;BME280;41486;52.502;13.486;2023-04-06T04:26:36;101573.19;;;1.28;100.00
55610;BME280;41486;52.502;13.486;2023-04-06T04:29:06;101574.91;;;1.28;100.00
55610;BME280;41486;52.502;13.486;2023-04-06T04:31:36;101573.91;;;1.33;100.00
55610;BME280;41486;52.502;13.486;2023-04-06T04:34:18;101574.16;;;1.22;100.00
55610;BME280;41486;52.502;13.486;2023-04-06T04:36:51;101573.28;;;1.23;100.00
55610;BME280;41486;52.502;13.486;2023-04-06T04:39:29;101572.69;;;1.10;100.00
55610;BME280;41486;52.502;13.486;2023-04-06T04:42:02;101576.09;;;1.13;100.00
55610;BME280;41486;52.502;13.486;2023-04-06T04:44:32;101578.81;;;1.06;100.00
55610;BME280;41486;52.502;13.486;2023-04-06T04:47:00;101577.09;;;1.05;100.00
55610;BME280;41486;52.502;13.486;2023-04-06T04:49:39;101578.59;;;1.17;100.00
55610;BME280;41486;52.502;13.486;2023-04-06T04:52:08;101582.97;;;1.15;100.00
55610;BME280;41486;52.502;13.486;2023-04-06T04:54:51;101580.47;;;1.10;100.00
55610;BME280;41486;52.502;13.486;2023-04-06T04:57:24;101581.03;;;1.25;100.00
55610;BME280;41486;52.502;13.486;2023-04-06T04:59:52;101584.59;;;1.19;100.00
55610;BME280;41486;52.502;13.486;2023-04-06T05:02:23;101586.03;;;1.33;100.00
55610;BME280;41486;52.502;13.486;2023-04-06T05:05:28;101577.56;;;1.24;100.00
55610;BME280;41486;52.502;13.486;2023-04-06T05:07:58;101581.22;;;1.16;100.00
55610;BME280;41486;52.502;13.486;2023-04-06T05:10:39;101578.47;;;1.22;100.00
55610;BME280;41486;52.502;13.486;2023-04-06T05:13:08;101578.47;;;1.22;100.00
55610;BME280;41486;52.502;13.486;2023-04-06T05:15:36;101581.06;;;1.22;100.00
55610;BME280;41486;52.502;13.486;2023-04-06T05:18:18;101580.09;;;1.28;100.00
55610;BME280;41486;52.502;13.486;2023-04-06T05:20:46;101577.47;;;1.29;100.00
55610;BME280;41486;52.502;13.486;2023-04-06T05:23:16;101586.84;;;1.35;100.00
55610;BME280;41486;52.502;13.486;2023-04-06T05:25:45;101586.53;;;1.49;100.00
55610;BME280;41486;52.502;13.486;2023-04-06T05:28:18;101587.25;;;1.55;100.00
55610;BME280;41486;52.502;13.486;2023-04-06T05:30:46;101594.38;;;1.47;100.00
55610;BME280;41486;52.502;13.486;2023-04-06T05:33:15;101592.56;;;1.49;100.00
55610;BME280;41486;52.502;13.486;2023-04-06T05:36:01;101593.31;;;1.54;100.00
55610;BME280;41486;52.502;13.486;2023-04-06T05:38:31;101594.06;;;1.60;100.00
55610;BME280;41486;52.502;13.486;2023-04-06T05:41:08;101594.78;;;1.66;100.00
55610;BME280;41486;52.502;13.486;2023-04-06T05:43:39;101594.88;;;1.62;100.00
55610;BME280;41486;52.502;13.486;2023-04-06T05:46:08;101602.63;;;1.63;100.00
55610;BME280;41486;52.502;13.486;2023-04-06T05:48:39;101604.97;;;1.74;100.00
55610;BME280;41486;52.502;13.486;2023-04-06T05:51:08;101598.78;;;1.80;100.00
55610;BME280;41486;52.502;13.486;2023-04-06T05:53:44;101598.50;;;1.92;100.00
55610;BME280;41486;52.502;13.486;2023-04-06T05:56:12;101595.91;;;1.92;100.00
55610;BME280;41486;52.502;13.486;2023-04-06T05:58:40;101601.94;;;1.93;100.00
55610;BME280;41486;52.502;13.486;2023-04-06T06:01:11;101599.25;;;1.96;100.00
55610;BME280;41486;52.502;13.486;2023-04-06T06:03:43;101599.25;;;1.96;100.00
55610;BME280;41486;52.502;13.486;2023-04-06T06:06:12;101600.75;;;2.04;100.00
55610;BME280;41486;52.502;13.486;2023-04-06T06:09:10;101597.06;;;2.15;100.00
55610;BME280;41486;52.502;13.486;2023-04-06T06:11:45;101605.63;;;2.18;100.00
55610;BME280;41486;52.502;13.486;2023-04-06T06:14:15;101611.41;;;2.28;100.00
55610;BME280;41486;52.502;13.486;2023-04-06T06:16:44;101603.50;;;2.33;100.00
55610;BME280;41486;52.502;13.486;2023-04-06T06:19:14;101599.66;;;2.48;100.00
55610;BME280;41486;52.502;13.486;2023-04-06T06:21:43;101602.19;;;2.49;100.00
55610;BME280;41486;52.502;13.486;2023-04-06T06:24:13;101601.97;;;2.57;100.00
55610;BME280;41486;52.502;13.486;2023-04-06T06:26:41;101610.53;;;2.61;100.00
55610;BME280;41486;52.502;13.486;2023-04-06T06:29:12;101606.50;;;2.82;100.00
55610;BME280;41486;52.502;13.486;2023-04-06T06:31:40;101607.25;;;2.86;100.00
55610;BME280;41486;52.502;13.486;2023-04-06T06:34:08;101606.16;;;2.94;100.00
55610;BME280;41486;52.502;13.486;2023-04-06T06:36:37;101602.28;;;3.08;100.00
55610;BME280;41486;52.502;13.486;2023-04-06T06:39:07;101599.41;;;3.17;100.00
55610;BME280;41486;52.502;13.486;2023-04-06T06:41:38;101598.75;;;3.10;100.00
55610;BME280;41486;52.502;13.486;2023-04-06T06:44:07;101607.41;;;3.11;100.00
55610;BME280;41486;52.502;13.486;2023-04-06T06:46:35;101605.06;;;3.31;100.00
55610;BME280;41486;52.502;13.486;2023-04-06T06:49:05;101602.50;;;3.30;100.00
55610;BME280;41486;52.502;13.486;2023-04-06T06:51:33;101606.56;;;3.39;98.61
55610;BME280;41486;52.502;13.486;2023-04-06T06:54:01;101604.69;;;3.44;98.70
55610;BME280;41486;52.502;13.486;2023-04-06T06:56:29;101610.25;;;3.60;94.22
55610;BME280;41486;52.502;13.486;2023-04-06T06:59:01;101614.88;;;3.78;93.68
55610;BME280;41486;52.502;13.486;2023-04-06T07:01:36;101615.44;;;3.88;92.37
55610;BME280;41486;52.502;13.486;2023-04-06T07:04:08;101609.91;;;3.98;90.64
55610;BME280;41486;52.502;13.486;2023-04-06T07:06:37;101609.47;;;4.12;88.11
55610;BME280;41486;52.502;13.486;2023-04-06T07:09:06;101609.09;;;4.22;85.92
55610;BME280;41486;52.502;13.486;2023-04-06T07:11:34;101610.44;;;4.34;84.11
55610;BME280;41486;52.502;13.486;2023-04-06T07:14:04;101618.09;;;4.39;81.60
55610;BME280;41486;52.502;13.486;2023-04-06T07:16:33;101612.44;;;4.51;81.15
55610;BME280;41486;52.502;13.486;2023-04-06T07:19:01;101605.47;;;4.52;79.73
55610;BME280;41486;52.502;13.486;2023-04-06T07:21:29;101613.97;;;4.57;78.36
55610;BME280;41486;52.502;13.486;2023-04-06T07:23:57;101617.00;;;4.70;78.66
55610;BME280;41486;52.502;13.486;2023-04-06T07:26:25;101611.56;;;4.76;76.72
55610;BME280;41486;52.502;13.486;2023-04-06T07:28:53;101606.81;;;4.87;76.19
55610;BME280;41486;52.502;13.486;2023-04-06T07:31:25;101623.75;;;4.99;75.19
55610;BME280;41486;52.502;13.486;2023-04-06T07:33:53;101606.97;;;5.07;74.68
55610;BME280;41486;52.502;13.486;2023-04-06T07:36:22;101609.06;;;5.20;74.71
55610;BME280;41486;52.502;13.486;2023-04-06T07:38:54;101619.13;;;5.30;72.17
55610;BME280;41486;52.502;13.486;2023-04-06T07:41:23;101610.34;;;5.32;69.74
55610;BME280;41486;52.502;13.486;2023-04-06T07:43:52;101613.50;;;5.41;70.23
55610;BME280;41486;52.502;13.486;2023-04-06T07:46:20;101612.28;;;5.49;69.49
55610;BME280;41486;52.502;13.486;2023-04-06T07:48:50;101604.44;;;5.72;68.42
55610;BME280;41486;52.502;13.486;2023-04-06T07:51:19;101610.97;;;5.82;67.75
55610;BME280;41486;52.502;13.486;2023-04-06T07:53:47;101611.31;;;5.95;65.25
55610;BME280;41486;52.502;13.486;2023-04-06T07:56:15;101609.56;;;5.95;64.93
55610;BME280;41486;52.502;13.486;2023-04-06T07:58:43;101605.88;;;6.01;62.78
55610;BME280;41486;52.502;13.486;2023-04-06T08:01:11;101616.50;;;5.96;61.46
55610;BME280;41486;52.502;13.486;2023-04-06T08:03:39;101619.16;;;5.95;62.58
55610;BME280;41486;52.502;13.486;2023-04-06T08:06:10;101607.88;;;5.94;62.48
55610;BME280;41486;52.502;13.486;2023-04-06T08:08:38;101612.31;;;6.14;63.53
55610;BME280;41486;52.502;13.486;2023-04-06T08:11:06;101606.63;;;6.25;62.30
55610;BME280;41486;52.502;13.486;2023-04-06T08:13:34;101612.38;;;6.34;61.14
55610;BME280;41486;52.502;13.486;2023-04-06T08:16:03;101613.78;;;6.41;59.21
55610;BME280;41486;52.502;13.486;2023-04-06T08:18:31;101605.47;;;6.52;58.18
55610;BME280;41486;52.502;13.486;2023-04-06T08:20:59;101614.56;;;6.63;57.64
55610;BME280;41486;52.502;13.486;2023-04-06T08:23:31;101613.44;;;6.69;56.77
55610;BME280;41486;52.502;13.486;2023-04-06T08:25:59;101613.22;;;6.74;57.50
55610;BME280;41486;52.502;13.486;2023-04-06T08:28:28;101611.50;;;7.13;55.72
55610;BME280;41486;52.502;13.486;2023-04-06T08:30:56;101606.31;;;7.11;54.31
55610;BME280;41486;52.502;13.486;2023-04-06T08:33:24;101603.88;;;7.25;54.67
55610;BME280;41486;52.502;13.486;2023-04-06T08:35:52;101607.94;;;7.14;52.51
55610;BME280;41486;52.502;13.486;2023-04-06T08:38:20;101597.19;;;7.20;53.49
55610;BME280;41486;52.502;13.486;2023-04-06T08:40:50;101607.78;;;7.36;53.58
55610;BME280;41486;52.502;13.486;2023-04-06T08:43:20;101602.94;;;7.09;53.46
55610;BME280;41486;52.502;13.486;2023-04-06T08:45:49;101612.75;;;7.04;52.14
55610;BME280;41486;52.502;13.486;2023-04-06T08:48:18;101610.00;;;7.26;51.05
55610;BME280;41486;52.502;13.486;2023-04-06T08:50:46;101600.78;;;7.36;49.97
55610;BME280;41486;52.502;13.486;2023-04-06T08:53:15;101604.03;;;7.41;48.80
55610;BME280;41486;52.502;13.486;2023-04-06T08:55:44;101604.44;;;7.51;50.14
55610;BME280;41486;52.502;13.486;2023-04-06T08:58:14;101607.53;;;7.60;49.79
55610;BME280;41486;52.502;13.486;2023-04-06T09:00:57;101609.44;;;7.56;49.94
55610;BME280;41486;52.502;13.486;2023-04-06T09:03:28;101599.88;;;7.18;50.54
55610;BME280;41486;52.502;13.486;2023-04-06T09:05:58;101598.41;;;7.49;51.64
55610;BME280;41486;52.502;13.486;2023-04-06T09:08:26;101598.31;;;7.70;49.97
55610;BME280;41486;52.502;13.486;2023-04-06T09:10:55;101597.53;;;7.68;49.14
55610;BME280;41486;52.502;13.486;2023-04-06T09:13:26;101600.16;;;7.85;49.30
55610;BME280;41486;52.502;13.486;2023-04-06T09:16:01;101593.75;;;7.73;49.01
55610;BME280;41486;52.502;13.486;2023-04-06T09:18:30;101595.84;;;8.02;49.86
55610;BME280;41486;52.502;13.486;2023-04-06T09:21:00;101597.78;;;8.16;48.13
55610;BME280;41486;52.502;13.486;2023-04-06T09:23:28;101592.47;;;8.17;48.48
55610;BME280;41486;52.502;13.486;2023-04-06T09:26:08;101595.31;;;8.30;47.83
55610;BME280;41486;52.502;13.486;2023-04-06T09:28:48;101585.75;;;8.29;48.02
55610;BME280;41486;52.502;13.486;2023-04-06T09:31:22;101581.97;;;8.52;48.19
55610;BME280;41486;52.502;13.486;2023-04-06T09:33:51;101583.25;;;8.77;47.18
55610;BME280;41486;52.502;13.486;2023-04-06T09:36:20;101585.47;;;8.85;46.63
55610;BME280;41486;52.502;13.486;2023-04-06T09:38:58;101586.09;;;9.06;45.81
55610;BME280;41486;52.502;13.486;2023-04-06T09:41:27;101579.91;;;9.07;45.69
55610;BME280;41486;52.502;13.486;2023-04-06T09:44:04;101573.53;;;9.11;45.08
55610;BME280;41486;52.502;13.486;2023-04-06T09:46:34;101586.50;;;9.14;44.69
55610;BME280;41486;52.502;13.486;2023-04-06T09:49:23;101577.94;;;9.27;42.60
55610;BME280;41486;52.502;13.486;2023-04-06T09:51:55;101584.13;;;9.26;43.58
55610;BME280;41486;52.502;13.486;2023-04-06T09:54:28;101576.00;;;9.14;44.34
55610;BME280;41486;52.502;13.486;2023-04-06T09:57:00;101570.56;;;9.18;42.62
55610;BME280;41486;52.502;13.486;2023-04-06T09:59:38;101575.06;;;8.83;43.97
55610;BME280;41486;52.502;13.486;2023-04-06T10:02:13;101564.81;;;8.79;44.77
55610;BME280;41486;52.502;13.486;2023-04-06T10:04:48;101567.09;;;9.33;44.63
55610;BME280;41486;52.502;13.486;2023-04-06T10:07:17;101570.53;;;9.50;43.40
55610;BME280;41486;52.502;13.486;2023-04-06T10:09:46;101568.97;;;9.77;42.76
55610;BME280;41486;52.502;13.486;2023-04-06T10:12:15;101572.88;;;9.70;41.71
55610;BME280;41486;52.502;13.486;2023-04-06T10:14:45;101569.78;;;9.78;43.17
55610;BME280;41486;52.502;13.486;2023-04-06T10:17:13;101566.06;;;9.82;43.12
55610;BME280;41486;52.502;13.486;2023-04-06T10:19:46;101563.97;;;9.73;41.20
55610;BME280;41486;52.502;13.486;2023-04-06T10:22:22;101571.22;;;9.84;38.63
55610;BME280;41486;52.502;13.486;2023-04-06T10:24:52;101573.41;;;9.61;38.06
55610;BME280;41486;52.502;13.486;2023-04-06T10:27:27;101567.69;;;9.38;38.51
55610;BME280;41486;52.502;13.486;2023-04-06T10:30:02;101561.72;;;9.51;40.28
55610;BME280;41486;52.502;13.486;2023-04-06T10:32:33;101561.78;;;9.65;40.55
55610;BME280;41486;52.502;13.486;2023-04-06T10:35:10;101562.03;;;9.91;39.67
55610;BME280;41486;52.502;13.486;2023-04-06T10:37:47;101557.81;;;10.48;38.09
55610;BME280;41486;52.502;13.486;2023-04-06T10:40:21;101557.34;;;10.70;38.52
55610;BME280;41486;52.502;13.486;2023-04-06T10:42:50;101560.00;;;10.97;38.03
55610;BME280;41486;52.502;13.486;2023-04-06T10:45:24;101560.56;;;11.30;35.61
55610;BME280;41486;52.502;13.486;2023-04-06T10:47:53;101559.66;;;11.84;36.28
55610;BME280;41486;52.502;13.486;2023-04-06T10:50:22;101556.66;;;11.63;36.33
55610;BME280;41486;52.502;13.486;2023-04-06T10:52:59;101560.94;;;11.91;36.25
55610;BME280;41486;52.502;13.486;2023-04-06T10:55:28;101562.72;;;11.10;36.30
55610;BME280;41486;52.502;13.486;2023-04-06T10:57:57;101558.03;;;11.28;36.65
55610;BME280;41486;52.502;13.486;2023-04-06T11:00:26;101543.13;;;11.14;37.63
55610;BME280;41486;52.502;13.486;2023-04-06T11:03:13;101558.75;;;10.61;37.81
55610;BME280;41486;52.502;13.486;2023-04-06T11:05:43;101548.31;;;11.16;37.67
55610;BME280;41486;52.502;13.486;2023-04-06T11:08:25;101548.84;;;11.21;37.47
55610;BME280;41486;52.502;13.486;2023-04-06T11:11:04;101546.34;;;11.60;36.18
55610;BME280;41486;52.502;13.486;2023-04-06T11:13:40;101544.44;;;12.78;34.39
55610;BME280;41486;52.502;13.486;2023-04-06T11:16:14;101530.16;;;12.93;34.04
55610;BME280;41486;52.502;13.486;2023-04-06T11:18:50;101542.88;;;14.19;32.03
55610;BME280;41486;52.502;13.486;2023-04-06T11:21:19;101546.59;;;14.96;31.30
55610;BME280;41486;52.502;13.486;2023-04-06T11:23:47;101543.00;;;13.35;31.75
55610;BME280;41486;52.502;13.486;2023-04-06T11:26:18;101541.25;;;12.61;34.61
55610;BME280;41486;52.502;13.486;2023-04-06T11:28:47;101533.34;;;12.10;35.83
55610;BME280;41486;52.502;13.486;2023-04-06T11:31:17;101539.78;;;13.67;33.24
55610;BME280;41486;52.502;13.486;2023-04-06T11:33:45;101531.00;;;12.94;34.37
55610;BME280;41486;52.502;13.486;2023-04-06T11:36:13;101534.19;;;12.36;35.14
55610;BME280;41486;52.502;13.486;2023-04-06T11:38:42;101524.25;;;12.27;35.14
55610;BME280;41486;52.502;13.486;2023-04-06T11:41:10;101524.22;;;11.75;36.40
55610;BME280;41486;52.502;13.486;2023-04-06T11:43:46;101524.72;;;11.67;35.76
55610;BME280;41486;52.502;13.486;2023-04-06T11:46:18;101523.09;;;11.12;36.95
55610;BME280;41486;52.502;13.486;2023-04-06T11:48:47;101524.63;;;11.82;36.38
55610;BME280;41486;52.502;13.486;2023-04-06T11:51:21;101527.44;;;11.53;36.07
55610;BME280;41486;52.502;13.486;2023-04-06T11:53:50;101520.69;;;11.09;37.33
55610;BME280;41486;52.502;13.486;2023-04-06T11:56:28;101514.75;;;11.05;36.77
55610;BME280;41486;52.502;13.486;2023-04-06T11:58:57;101518.50;;;10.73;37.26
55610;BME280;41486;52.502;13.486;2023-04-06T12:01:28;101505.47;;;11.80;36.61
55610;BME280;41486;52.502;13.486;2023-04-06T12:04:02;101500.56;;;11.48;37.31
55610;BME280;41486;52.502;13.486;2023-04-06T12:06:30;101505.56;;;11.65;36.83
55610;BME280;41486;52.502;13.486;2023-04-06T12:08:58;101508.66;;;12.11;36.01
55610;BME280;41486;52.502;13.486;2023-04-06T12:11:26;101504.06;;;14.98;31.27
55610;BME280;41486;52.502;13.486;2023-04-06T12:13:54;101509.88;;;16.81;28.69
55610;BME280;41486;52.502;13.486;2023-04-06T12:16:22;101508.25;;;16.49;28.95
55610;BME280;41486;52.502;13.486;2023-04-06T12:18:52;101511.69;;;16.90;28.44
55610;BME280;41486;52.502;13.486;2023-04-06T12:21:20;101510.75;;;17.01;27.53
55610;BME280;41486;52.502;13.486;2023-04-06T12:23:48;101514.66;;;15.63;29.61
55610;BME280;41486;52.502;13.486;2023-04-06T12:26:16;101502.81;;;18.45;27.58
55610;BME280;41486;52.502;13.486;2023-04-06T12:28:44;101508.69;;;13.94;32.25
55610;BME280;41486;52.502;13.486;2023-04-06T12:31:16;101498.78;;;13.13;33.50
55610;BME280;41486;52.502;13.486;2023-04-06T12:33:46;101511.78;;;13.16;33.77
55610;BME280;41486;52.502;13.486;2023-04-06T12:36:17;101504.44;;;11.42;35.43
55610;BME280;41486;52.502;13.486;2023-04-06T12:38:47;101497.63;;;14.57;31.18
55610;BME280;41486;52.502;13.486;2023-04-06T12:41:15;101493.09;;;16.30;30.24
55610;BME280;41486;52.502;13.486;2023-04-06T12:43:44;101492.59;;;17.45;27.79
55610;BME280;41486;52.502;13.486;2023-04-06T12:46:12;101500.03;;;16.52;28.50
55610;BME280;41486;52.502;13.486;2023-04-06T12:48:41;101503.91;;;13.52;32.89
55610;BME280;41486;52.502;13.486;2023-04-06T12:51:09;101501.66;;;12.49;34.80
55610;BME280;41486;52.502;13.486;2023-04-06T12:53:39;101486.47;;;12.76;34.00
55610;BME280;41486;52.502;13.486;2023-04-06T12:56:16;101481.56;;;12.46;35.64
55610;BME280;41486;52.502;13.486;2023-04-06T12:58:45;101487.28;;;12.53;35.20
55610;BME280;41486;52.502;13.486;2023-04-06T13:01:13;101483.53;;;12.68;35.73
55610;BME280;41486;52.502;13.486;2023-04-06T13:03:41;101478.09;;;12.45;35.27
55610;BME280;41486;52.502;13.486;2023-04-06T13:06:10;101478.09;;;14.80;31.68